DTTF

Gafsa Ksar International Airport

Gafsa, Tunisia
METAR DTTF 161000Z 24012KT 9999 FEW026 SCT033 12/07 Q1013 NOSIG
Observed Flight Rules
Dec-16 @ 10:00 UTC (an hour ago) Visual Flight Rules
Wind Visibility Clouds
240° at 12 knots 10,000+ meters
  • Few at 2,600' AGL
  • Scattered at 3,300' AGL
Temperatures Readings
Current 12°C / 54°F
Dewpoint 7°C / 45°F
Humidity 72%
Altimeter 29.91" Hg
Pressure 1013 hPa
Elevation 314
METAR DTTF 161000Z 24012KT 9999 FEW026 SCT033 12/07 Q1013 NOSIG
Observed Flight Rules
Dec-16 @ 10:00 UTC
(an hour ago)
VFR
Wind Visibility
240° at 12 knots 10,000+ meters
Clouds
  • Few at 2,600' AGL
  • Scattered at 3,300' AGL
Temperature Dewpoint
12°C / 54°F 7°C / 45°F
Humidity Altimeter Pressure
72% 29.91" Hg 1013 hPa